Terminal Aerodrome Forecast
Issued by NWS Charleston, SC

Home | Current Version | Previous Version | Text Only | Print | Product List | Glossary On
Versions: 1 2 3 4 5 6 7 8 9 10 11 12 13 14 15 16 17 18 19 20 21 22 23 24 25 26 27 28
000
FTUS42 KCHS 230500
TAFSAV
TAF
KSAV 230539Z 2306/2406 00000KT P6SM SCT025 BKN100
     FM230800 00000KT 6SM BR SCT015 BKN035
     FM231400 27004KT P6SM SCT025 BKN040
     FM231900 19008KT P6SM SCT035 BKN150=

USA.gov is the U.S. government's official web portal to all federal, state and local government web resources and services.